Time;durP1;ratioP1;P1;durP2;ratioP2;P2;SDS_P1;SDS_P2;PMS_P1;PMS_P2;Temp;Humidity;BMP_temperature;BMP_pressure;BME280_temperature;BME280_humidity;BME280_pressure;Samples;Min_cycle;Max_cycle;Signal;HPM_P1;HPM_P2
2023/10/25 00:00:46;;;;;;;9.07;6.20;;;10.40;99.90;;;;;;5018510;28;20029;-82
2023/10/25 00:03:12;;;;;;;8.88;5.95;;;10.40;99.90;;;;;;5032952;28;20046;-82
2023/10/25 00:05:38;;;;;;;25.25;6.50;;;10.30;99.90;;;;;;5034555;28;20494;-83
2023/10/25 00:08:04;;;;;;;35.13;6.38;;;10.30;99.90;;;;;;5029624;28;20049;-82
2023/10/25 00:10:29;;;;;;;9.98;5.07;;;10.20;99.90;;;;;;5046404;28;20057;-82
2023/10/25 00:12:55;;;;;;;5.65;4.75;;;10.10;99.90;;;;;;5050015;28;20041;-82
2023/10/25 00:15:24;;;;;;;6.95;5.15;;;10.00;99.90;;;;;;5034224;28;20079;-83
2023/10/25 00:17:50;;;;;;;9.68;5.07;;;10.00;99.90;;;;;;5009449;28;20037;-83
2023/10/25 00:20:16;;;;;;;5.65;5.07;;;10.00;99.90;;;;;;5033231;28;20057;-81
2023/10/25 00:22:41;;;;;;;8.45;4.90;;;9.90;99.90;;;;;;5034250;28;20560;-82
2023/10/25 00:25:07;;;;;;;8.13;5.20;;;9.90;99.90;;;;;;5033676;28;20037;-83
2023/10/25 00:27:33;;;;;;;7.90;5.30;;;9.90;99.90;;;;;;5032032;28;20089;-83
2023/10/25 00:29:59;;;;;;;8.63;5.13;;;9.80;99.90;;;;;;5035153;28;20064;-82
2023/10/25 00:32:25;;;;;;;7.00;5.30;;;9.80;99.90;;;;;;5020311;28;20077;-83
2023/10/25 00:34:51;;;;;;;12.88;6.43;;;9.80;99.90;;;;;;5036335;28;20029;-83
2023/10/25 00:37:16;;;;;;;5.88;4.45;;;9.80;99.90;;;;;;5035105;28;20036;-81
2023/10/25 00:39:42;;;;;;;7.35;4.68;;;9.80;99.90;;;;;;5034444;28;20044;-82
2023/10/25 00:42:08;;;;;;;70.43;5.97;;;9.80;99.90;;;;;;5033455;28;20033;-82
2023/10/25 00:44:33;;;;;;;6.28;4.50;;;9.80;99.90;;;;;;5034796;28;20034;-83
2023/10/25 00:47:01;;;;;;;5.72;3.90;;;9.80;99.90;;;;;;5033274;28;20037;-81
2023/10/25 00:49:28;;;;;;;6.55;3.97;;;9.70;99.90;;;;;;5035289;28;20037;-83
2023/10/25 00:51:53;;;;;;;46.83;4.85;;;9.70;99.90;;;;;;5014822;28;20080;-82
2023/10/25 00:54:20;;;;;;;82.03;6.00;;;9.70;99.90;;;;;;5037265;28;20037;-83
2023/10/25 00:56:48;;;;;;;4.97;3.35;;;9.70;99.90;;;;;;5033128;28;20037;-83
2023/10/25 00:59:15;;;;;;;7.75;3.42;;;9.70;99.90;;;;;;5033669;28;20040;-83
2023/10/25 01:01:41;;;;;;;4.20;3.20;;;9.70;99.90;;;;;;5032452;28;20041;-83
2023/10/25 01:04:07;;;;;;;9.77;3.25;;;9.70;99.90;;;;;;5036236;28;20741;-83
2023/10/25 01:06:33;;;;;;;3.33;3.03;;;9.60;99.90;;;;;;5033837;28;20037;-83
2023/10/25 01:08:59;;;;;;;3.22;2.97;;;9.60;99.90;;;;;;5035048;28;20033;-83
2023/10/25 01:11:26;;;;;;;6.88;3.40;;;9.60;99.90;;;;;;5038483;28;20033;-83
2023/10/25 01:13:52;;;;;;;3.30;3.00;;;9.60;99.90;;;;;;5043849;28;20048;-84
2023/10/25 01:16:19;;;;;;;3.35;3.05;;;9.60;99.90;;;;;;5043102;28;20033;-83
2023/10/25 01:18:45;;;;;;;5.13;3.10;;;9.60;99.90;;;;;;5033513;28;20442;-83
2023/10/25 01:21:11;;;;;;;4.93;3.40;;;9.60;99.90;;;;;;5035084;28;20078;-83
2023/10/25 01:23:36;;;;;;;4.47;3.58;;;9.50;99.90;;;;;;5038174;28;20038;-83
2023/10/25 01:26:03;;;;;;;3.75;3.30;;;9.50;99.90;;;;;;5036930;28;20033;-83
2023/10/25 01:28:29;;;;;;;7.10;3.47;;;9.50;99.90;;;;;;5037468;28;20555;-82
2023/10/25 01:30:55;;;;;;;6.00;3.20;;;9.50;99.90;;;;;;5035712;28;20033;-82
2023/10/25 01:33:21;;;;;;;4.38;3.55;;;9.40;99.90;;;;;;5034715;28;20088;-83
2023/10/25 01:35:46;;;;;;;4.93;3.75;;;9.40;99.90;;;;;;5037065;28;20029;-82
2023/10/25 01:38:12;;;;;;;8.88;3.70;;;9.40;99.90;;;;;;5034353;28;20095;-82
2023/10/25 01:40:38;;;;;;;5.55;3.33;;;9.40;99.90;;;;;;5034406;28;20036;-83
2023/10/25 01:43:04;;;;;;;5.43;3.53;;;9.40;99.90;;;;;;5049051;28;20036;-82
2023/10/25 01:45:30;;;;;;;3.97;3.05;;;9.30;99.90;;;;;;5025609;28;20022;-83
2023/10/25 01:47:56;;;;;;;5.25;3.22;;;9.30;99.90;;;;;;5035544;28;20523;-81
2023/10/25 01:50:22;;;;;;;4.25;3.55;;;9.30;99.90;;;;;;5017546;28;20043;-83
2023/10/25 01:52:48;;;;;;;4.45;3.50;;;9.30;99.90;;;;;;5034421;28;20471;-83
2023/10/25 01:55:14;;;;;;;6.97;2.97;;;9.30;99.90;;;;;;5037165;28;20037;-81
2023/10/25 01:57:40;;;;;;;4.68;3.28;;;9.30;99.90;;;;;;5011951;28;20048;-81
2023/10/25 02:00:09;;;;;;;5.97;3.33;;;9.30;99.90;;;;;;5027374;28;20463;-82
2023/10/25 02:02:44;;;;;;;4.72;3.30;;;9.30;99.90;;;;;;5027138;28;20041;-83
2023/10/25 02:05:10;;;;;;;4.85;3.22;;;9.20;99.90;;;;;;5034463;28;20369;-82
2023/10/25 02:07:35;;;;;;;4.68;3.22;;;9.20;99.90;;;;;;5032009;28;20120;-83
2023/10/25 02:10:02;;;;;;;4.78;3.30;;;9.10;99.90;;;;;;5032669;28;20405;-82
2023/10/25 02:12:28;;;;;;;5.43;3.33;;;9.10;99.90;;;;;;5012959;28;20106;-81
2023/10/25 02:14:54;;;;;;;3.70;3.08;;;9.00;99.90;;;;;;5015757;28;20489;-82
2023/10/25 02:17:20;;;;;;;4.75;2.85;;;9.00;99.90;;;;;;5031982;28;20260;-82
2023/10/25 02:19:46;;;;;;;4.40;3.63;;;8.90;99.90;;;;;;5029975;28;20025;-81
2023/10/25 02:22:12;;;;;;;3.08;2.72;;;8.90;99.90;;;;;;5029015;28;20038;-82
2023/10/25 02:24:38;;;;;;;4.43;3.00;;;8.80;99.90;;;;;;5015363;28;20025;-82
2023/10/25 02:27:04;;;;;;;4.40;3.42;;;8.80;99.90;;;;;;5028979;28;20033;-83
2023/10/25 02:29:31;;;;;;;4.30;3.55;;;8.70;99.90;;;;;;5030535;28;20037;-82
2023/10/25 02:31:57;;;;;;;3.80;3.40;;;8.70;99.90;;;;;;5029697;28;20108;-81
2023/10/25 02:34:23;;;;;;;6.07;3.80;;;8.60;99.90;;;;;;5029600;28;20034;-83
2023/10/25 02:36:49;;;;;;;3.88;2.97;;;8.50;99.90;;;;;;5033271;28;20045;-82
2023/10/25 02:39:14;;;;;;;13.75;3.47;;;8.40;99.90;;;;;;5031076;28;20033;-83
2023/10/25 02:41:40;;;;;;;4.18;3.20;;;8.40;99.90;;;;;;5030384;28;20064;-81
2023/10/25 02:44:06;;;;;;;3.90;3.35;;;8.40;99.90;;;;;;5028482;28;20040;-81
2023/10/25 02:46:32;;;;;;;6.60;3.92;;;8.40;99.90;;;;;;5034009;28;20155;-81
2023/10/25 02:48:58;;;;;;;4.05;3.38;;;8.40;99.90;;;;;;5033770;28;20493;-82
2023/10/25 02:51:23;;;;;;;4.95;3.92;;;8.30;99.90;;;;;;5038316;28;20033;-83
2023/10/25 02:53:52;;;;;;;6.28;4.60;;;8.30;99.90;;;;;;5031521;28;20026;-82
2023/10/25 02:56:18;;;;;;;5.88;4.22;;;8.30;99.90;;;;;;5031979;28;20041;-83
2023/10/25 02:58:44;;;;;;;4.55;3.80;;;8.30;99.90;;;;;;5043280;28;20033;-83
2023/10/25 03:01:22;;;;;;;5.18;4.20;;;8.30;99.90;;;;;;5031050;28;20099;-82
2023/10/25 03:03:48;;;;;;;6.75;4.32;;;8.30;99.90;;;;;;5029951;28;20452;-81
2023/10/25 03:06:14;;;;;;;5.13;4.35;;;8.20;99.90;;;;;;5033574;28;20059;-83
2023/10/25 03:08:41;;;;;;;6.03;4.65;;;8.20;99.90;;;;;;5012189;28;20037;-81
2023/10/25 03:11:07;;;;;;;6.40;4.88;;;8.20;99.90;;;;;;5023563;28;20044;-81
2023/10/25 03:13:32;;;;;;;5.80;4.13;;;8.10;99.90;;;;;;5041200;28;20044;-81
2023/10/25 03:15:58;;;;;;;7.03;4.22;;;8.10;99.90;;;;;;5019507;28;20022;-82
2023/10/25 03:18:24;;;;;;;8.82;5.22;;;8.10;99.90;;;;;;5029723;28;20528;-83
2023/10/25 03:20:50;;;;;;;7.15;4.68;;;8.10;99.90;;;;;;5029986;28;20045;-81
2023/10/25 03:23:15;;;;;;;8.65;5.25;;;8.10;99.90;;;;;;5028233;28;20037;-83
2023/10/25 03:25:41;;;;;;;7.53;5.30;;;8.10;99.90;;;;;;5011089;28;20507;-83
2023/10/25 03:28:07;;;;;;;6.22;4.45;;;8.00;99.90;;;;;;5028773;28;20033;-81
2023/10/25 03:30:35;;;;;;;7.03;5.43;;;8.00;99.90;;;;;;5028073;28;20053;-82
2023/10/25 03:33:01;;;;;;;6.30;4.95;;;8.00;99.90;;;;;;5010665;28;20041;-81
2023/10/25 03:35:27;;;;;;;8.05;5.60;;;8.00;99.90;;;;;;5023952;28;20134;-82
2023/10/25 03:37:53;;;;;;;7.72;5.72;;;8.00;99.90;;;;;;5028150;28;20085;-82
2023/10/25 03:40:19;;;;;;;9.30;5.03;;;8.00;99.90;;;;;;5028795;28;20049;-81
2023/10/25 03:42:45;;;;;;;8.32;5.25;;;7.90;99.90;;;;;;5025309;28;20030;-81
2023/10/25 03:45:11;;;;;;;12.02;5.82;;;7.90;99.90;;;;;;5027738;28;20044;-83
2023/10/25 03:47:39;;;;;;;10.27;6.43;;;7.90;99.90;;;;;;5013193;28;20116;-81
2023/10/25 03:50:06;;;;;;;8.38;6.25;;;7.90;99.90;;;;;;5029071;28;20048;-82
2023/10/25 03:52:32;;;;;;;8.10;5.47;;;7.90;99.90;;;;;;5028411;28;20040;-82
2023/10/25 03:54:58;;;;;;;11.10;5.70;;;7.90;99.90;;;;;;5028908;28;20034;-82
2023/10/25 03:57:24;;;;;;;13.20;6.32;;;7.90;99.90;;;;;;5029731;28;20029;-80
2023/10/25 03:59:50;;;;;;;13.05;6.70;;;7.90;99.90;;;;;;5037189;28;20030;-81
2023/10/25 04:02:16;;;;;;;11.52;7.35;;;7.80;99.90;;;;;;5024392;28;20117;-81
2023/10/25 04:04:42;;;;;;;15.48;6.82;;;7.80;99.90;;;;;;5035869;28;20033;-84
2023/10/25 04:07:11;;;;;;;12.05;7.53;;;7.80;99.90;;;;;;5031013;28;20038;-83
2023/10/25 04:09:37;;;;;;;12.98;7.72;;;7.80;99.90;;;;;;5032138;28;20722;-83
2023/10/25 04:12:03;;;;;;;13.30;6.90;;;7.80;99.90;;;;;;5028284;28;20061;-82
2023/10/25 04:14:29;;;;;;;14.45;8.07;;;7.80;99.90;;;;;;5032334;28;20160;-83
2023/10/25 04:16:55;;;;;;;12.13;7.65;;;7.90;99.90;;;;;;5033640;28;20530;-84
2023/10/25 04:19:21;;;;;;;12.52;7.80;;;7.90;99.90;;;;;;5037505;28;20053;-83
2023/10/25 04:21:47;;;;;;;14.27;8.00;;;7.90;99.90;;;;;;5027138;28;20045;-83
2023/10/25 04:24:12;;;;;;;15.13;8.82;;;7.90;99.90;;;;;;5036552;28;20083;-83
2023/10/25 04:26:38;;;;;;;14.00;8.55;;;7.90;99.90;;;;;;5026910;28;20038;-83
2023/10/25 04:29:04;;;;;;;17.33;8.45;;;7.90;99.90;;;;;;5029208;28;20040;-83
2023/10/25 04:31:29;;;;;;;14.95;8.93;;;7.80;99.90;;;;;;5030743;28;20059;-84
2023/10/25 04:33:55;;;;;;;14.60;8.82;;;7.80;99.90;;;;;;5033180;28;20033;-85
2023/10/25 04:36:21;;;;;;;12.50;7.85;;;7.80;99.90;;;;;;5051696;28;20112;-83
2023/10/25 04:38:46;;;;;;;14.95;8.80;;;7.80;99.90;;;;;;5030944;28;20030;-81
2023/10/25 04:41:13;;;;;;;12.02;8.32;;;7.70;99.90;;;;;;5045907;28;20117;-82
2023/10/25 04:43:38;;;;;;;13.30;7.95;;;7.70;99.90;;;;;;5040682;28;20018;-83
2023/10/25 04:46:04;;;;;;;14.38;8.20;;;7.60;99.90;;;;;;5032504;28;20033;-83
2023/10/25 04:48:30;;;;;;;13.43;7.90;;;7.60;99.90;;;;;;5026655;28;20076;-81
2023/10/25 04:50:56;;;;;;;13.75;8.05;;;7.50;99.90;;;;;;5031212;28;20189;-81
2023/10/25 04:53:21;;;;;;;14.05;8.73;;;7.50;99.90;;;;;;5031858;28;20091;-81
2023/10/25 04:55:48;;;;;;;15.77;8.65;;;7.50;99.90;;;;;;5036546;28;20034;-81
2023/10/25 04:58:14;;;;;;;15.05;8.70;;;7.50;99.90;;;;;;5031447;28;20029;-83
2023/10/25 05:00:40;;;;;;;12.88;8.05;;;7.40;99.90;;;;;;5031384;28;20026;-82
2023/10/25 05:03:10;;;;;;;14.98;8.40;;;7.40;99.90;;;;;;5035816;28;20040;-81
2023/10/25 05:05:37;;;;;;;16.33;8.95;;;7.40;99.90;;;;;;5051943;28;20038;-81
2023/10/25 05:08:03;;;;;;;14.60;8.88;;;7.40;99.90;;;;;;5032198;28;20021;-81
2023/10/25 05:10:30;;;;;;;14.60;8.90;;;7.40;99.90;;;;;;5032197;28;20053;-81
2023/10/25 05:12:56;;;;;;;16.40;9.70;;;7.50;99.90;;;;;;5031149;28;20053;-82
2023/10/25 05:15:23;;;;;;;14.43;8.88;;;7.50;99.90;;;;;;5037312;28;20017;-81
2023/10/25 05:17:49;;;;;;;17.13;9.15;;;7.50;99.90;;;;;;5013920;28;20030;-82
2023/10/25 05:20:16;;;;;;;14.80;9.23;;;7.50;99.90;;;;;;5028631;28;20022;-82
2023/10/25 05:22:45;;;;;;;12.85;8.10;;;7.50;99.90;;;;;;5012482;28;20021;-82
2023/10/25 05:25:11;;;;;;;14.38;8.68;;;7.50;99.90;;;;;;5055409;28;20063;-81
2023/10/25 05:27:38;;;;;;;13.20;8.45;;;7.50;99.90;;;;;;5027134;28;20018;-82
2023/10/25 05:30:07;;;;;;;13.90;9.23;;;7.50;99.90;;;;;;5030077;28;20120;-83
2023/10/25 05:32:38;;;;;;;14.23;9.20;;;7.50;99.90;;;;;;5032070;28;20039;-83
2023/10/25 05:35:05;;;;;;;14.32;8.50;;;7.50;99.90;;;;;;5036837;28;20040;-82
2023/10/25 05:37:31;;;;;;;15.15;9.50;;;7.50;99.90;;;;;;5013129;28;20091;-82
2023/10/25 05:39:57;;;;;;;14.93;9.40;;;7.50;99.90;;;;;;5025065;28;20604;-83
2023/10/25 05:42:24;;;;;;;16.75;9.73;;;7.50;99.90;;;;;;5030767;28;20550;-82
2023/10/25 05:44:53;;;;;;;14.80;9.18;;;7.50;99.90;;;;;;5035851;28;20021;-82
2023/10/25 05:47:23;;;;;;;16.90;9.15;;;7.50;99.90;;;;;;5031845;28;20409;-81
2023/10/25 05:49:50;;;;;;;16.88;9.13;;;7.50;99.90;;;;;;5028608;28;20086;-82
2023/10/25 05:52:16;;;;;;;16.63;10.07;;;7.50;99.90;;;;;;5009911;28;20038;-83
2023/10/25 05:54:42;;;;;;;15.20;9.40;;;7.50;99.90;;;;;;5030944;28;20025;-82
2023/10/25 05:57:09;;;;;;;16.27;10.20;;;7.60;99.90;;;;;;5026482;28;20037;-82
2023/10/25 05:59:35;;;;;;;15.73;9.35;;;7.60;99.90;;;;;;5024585;28;20036;-82
2023/10/25 06:02:14;;;;;;;17.83;9.07;;;7.70;99.90;;;;;;5025259;28;20033;-82
2023/10/25 06:04:41;;;;;;;17.40;9.75;;;7.70;99.90;;;;;;5035565;28;20033;-83
2023/10/25 06:07:12;;;;;;;23.83;12.05;;;7.80;99.90;;;;;;5028581;28;20632;-84
2023/10/25 06:09:39;;;;;;;18.33;11.80;;;7.90;99.90;;;;;;5039110;28;20833;-83
2023/10/25 06:12:05;;;;;;;18.27;10.80;;;7.90;99.90;;;;;;5030212;28;20397;-81
2023/10/25 06:14:31;;;;;;;21.90;11.95;;;8.00;99.90;;;;;;5040604;28;20048;-83
2023/10/25 06:16:58;;;;;;;19.75;11.80;;;8.00;99.90;;;;;;5032885;28;20504;-83
2023/10/25 06:19:24;;;;;;;17.85;10.55;;;7.90;99.90;;;;;;5027081;28;20576;-81
2023/10/25 06:21:50;;;;;;;19.95;11.27;;;8.00;99.90;;;;;;5032269;28;20030;-83
2023/10/25 06:24:15;;;;;;;21.20;11.18;;;8.00;99.90;;;;;;5033273;28;20413;-82
2023/10/25 06:26:44;;;;;;;18.25;11.02;;;8.10;99.90;;;;;;5021548;28;20048;-83
2023/10/25 06:29:10;;;;;;;19.63;11.05;;;8.10;99.90;;;;;;5030646;28;20049;-81
2023/10/25 06:31:36;;;;;;;18.15;10.57;;;8.20;99.90;;;;;;5028228;28;21140;-83
2023/10/25 06:34:02;;;;;;;18.90;10.75;;;8.20;99.90;;;;;;5032662;28;20378;-82
2023/10/25 06:36:28;;;;;;;20.77;12.00;;;8.30;99.90;;;;;;5030958;28;20571;-82
2023/10/25 06:38:54;;;;;;;16.35;10.45;;;8.30;99.90;;;;;;5029786;28;20025;-83
2023/10/25 06:41:24;;;;;;;19.52;11.80;;;8.40;99.90;;;;;;5029595;28;20065;-83
2023/10/25 06:43:50;;;;;;;20.80;11.50;;;8.40;99.90;;;;;;5039820;28;20643;-82
2023/10/25 06:46:17;;;;;;;21.25;12.45;;;8.50;99.90;;;;;;5027438;28;20513;-82
2023/10/25 06:48:43;;;;;;;18.42;10.43;;;8.50;99.90;;;;;;5030543;28;20057;-83
2023/10/25 06:51:09;;;;;;;19.58;11.23;;;8.50;99.90;;;;;;5027148;28;20059;-81
2023/10/25 06:53:38;;;;;;;31.90;12.00;;;8.60;99.90;;;;;;5029424;28;20147;-81
2023/10/25 06:56:05;;;;;;;21.08;12.35;;;8.70;99.90;;;;;;5036702;28;20120;-81
2023/10/25 06:58:31;;;;;;;19.27;12.27;;;8.70;99.90;;;;;;5029801;28;20033;-82
2023/10/25 07:00:58;;;;;;;21.05;12.13;;;8.80;99.90;;;;;;5028809;28;20021;-81
2023/10/25 07:03:50;;;;;;;23.10;12.98;;;8.90;99.90;;;;;;5032820;28;20040;-81
2023/10/25 07:06:17;;;;;;;19.40;11.48;;;9.00;99.90;;;;;;5028979;28;20045;-81
2023/10/25 07:08:44;;;;;;;22.13;12.15;;;9.00;99.90;;;;;;5028292;28;20039;-81
2023/10/25 07:11:10;;;;;;;18.08;9.88;;;9.10;99.90;;;;;;5028997;28;20029;-83
2023/10/25 07:13:36;;;;;;;18.27;9.88;;;9.20;99.90;;;;;;5035681;28;20037;-83
2023/10/25 07:16:02;;;;;;;20.10;11.20;;;9.30;99.90;;;;;;5038657;28;20064;-82
2023/10/25 07:18:28;;;;;;;17.80;10.85;;;9.30;99.90;;;;;;5030688;28;20610;-82
2023/10/25 07:20:54;;;;;;;19.30;11.25;;;9.40;99.90;;;;;;5027837;28;20018;-84
2023/10/25 07:23:19;;;;;;;17.83;11.15;;;9.40;99.90;;;;;;5030285;28;20064;-83
2023/10/25 07:25:45;;;;;;;16.05;10.85;;;9.40;99.90;;;;;;5030154;28;20021;-83
2023/10/25 07:28:11;;;;;;;17.25;10.95;;;9.30;99.90;;;;;;5025587;28;20049;-82
2023/10/25 07:30:37;;;;;;;19.10;11.75;;;9.30;99.90;;;;;;5031586;28;20061;-82
2023/10/25 07:33:03;;;;;;;19.45;11.23;;;9.30;99.90;;;;;;5029192;28;20075;-83
2023/10/25 07:35:29;;;;;;;18.42;11.45;;;9.30;99.90;;;;;;5033247;28;20030;-82
2023/10/25 07:37:55;;;;;;;17.90;11.38;;;9.10;99.90;;;;;;5031188;28;20014;-81
2023/10/25 07:40:21;;;;;;;17.58;11.73;;;9.10;99.90;;;;;;5025704;28;20072;-81
2023/10/25 07:42:47;;;;;;;20.40;11.43;;;9.10;99.90;;;;;;5023888;28;20121;-80
2023/10/25 07:45:13;;;;;;;19.70;11.75;;;9.20;99.90;;;;;;5032001;28;20028;-81
2023/10/25 07:47:40;;;;;;;23.10;12.38;;;9.20;99.90;;;;;;5036085;28;20084;-80
2023/10/25 07:50:06;;;;;;;20.90;12.20;;;9.20;99.90;;;;;;5015362;28;20025;-80
2023/10/25 07:52:34;;;;;;;23.75;12.40;;;9.20;99.90;;;;;;5031909;28;20025;-80
2023/10/25 07:55:01;;;;;;;21.48;12.25;;;9.20;99.90;;;;;;5038860;28;20041;-79
2023/10/25 07:57:26;;;;;;;24.23;13.68;;;9.30;99.90;;;;;;5041302;28;20109;-81
2023/10/25 07:59:53;;;;;;;27.17;14.00;;;9.40;99.90;;;;;;5038756;28;20057;-81
2023/10/25 08:02:18;;;;;;;26.38;13.15;;;9.60;99.90;;;;;;5030585;28;20113;-81
2023/10/25 08:04:44;;;;;;;22.05;12.85;;;9.60;99.90;;;;;;5030035;28;20061;-81
2023/10/25 08:07:10;;;;;;;21.17;12.02;;;9.70;99.90;;;;;;5031705;28;20025;-82
2023/10/25 08:09:36;;;;;;;20.65;11.95;;;9.70;99.90;;;;;;5032828;28;20063;-81
2023/10/25 08:12:02;;;;;;;21.17;12.13;;;9.80;99.90;;;;;;5030366;28;20156;-81
2023/10/25 08:14:28;;;;;;;20.02;12.35;;;9.90;99.90;;;;;;5032556;28;20047;-81
2023/10/25 08:16:54;;;;;;;20.92;12.57;;;9.90;99.90;;;;;;5031124;28;20025;-81
2023/10/25 08:19:20;;;;;;;20.63;12.00;;;10.00;99.90;;;;;;5034249;28;20109;-81
2023/10/25 08:21:46;;;;;;;19.20;12.00;;;10.00;99.90;;;;;;5036249;28;20030;-81
2023/10/25 08:24:11;;;;;;;20.80;12.45;;;10.00;99.90;;;;;;5036073;28;20105;-80
2023/10/25 08:26:41;;;;;;;20.60;12.43;;;10.00;99.90;;;;;;5037462;28;20029;-80
2023/10/25 08:29:08;;;;;;;19.23;11.70;;;10.00;99.90;;;;;;5034718;28;20381;-80
2023/10/25 08:31:34;;;;;;;19.40;11.38;;;10.00;99.90;;;;;;5035065;28;20049;-81
2023/10/25 08:34:01;;;;;;;18.27;11.90;;;10.10;99.90;;;;;;5030783;28;20021;-81
2023/10/25 08:36:29;;;;;;;16.50;11.15;;;10.20;99.90;;;;;;5029164;28;20024;-82
2023/10/25 08:38:55;;;;;;;19.42;12.57;;;10.20;99.90;;;;;;5030856;28;20097;-83
2023/10/25 08:41:22;;;;;;;18.92;12.35;;;10.10;99.90;;;;;;5031351;28;20060;-82
2023/10/25 08:43:48;;;;;;;15.95;11.00;;;10.10;99.90;;;;;;5032270;28;20029;-84
2023/10/25 08:46:16;;;;;;;17.30;11.68;;;10.10;99.90;;;;;;5035451;28;20037;-84
2023/10/25 08:48:42;;;;;;;16.23;10.85;;;10.10;99.90;;;;;;5015377;28;20136;-80
2023/10/25 08:51:08;;;;;;;20.45;11.88;;;10.20;99.90;;;;;;5014324;28;20061;-83
2023/10/25 08:53:35;;;;;;;17.95;11.27;;;10.20;99.90;;;;;;5030067;28;20067;-82
2023/10/25 08:56:01;;;;;;;16.95;11.07;;;10.30;99.90;;;;;;5030542;28;20032;-82
2023/10/25 08:58:28;;;;;;;16.13;10.98;;;10.30;99.90;;;;;;5027974;28;20037;-79
2023/10/25 09:00:57;;;;;;;16.50;10.88;;;10.40;99.90;;;;;;5035613;28;20021;-82
2023/10/25 09:03:32;;;;;;;14.85;10.70;;;10.40;99.90;;;;;;5028411;28;20044;-81
2023/10/25 09:06:05;;;;;;;15.33;10.27;;;10.40;99.90;;;;;;5031062;28;20029;-83
2023/10/25 09:08:33;;;;;;;17.55;10.88;;;10.50;99.90;;;;;;5027004;28;20030;-81
2023/10/25 09:11:03;;;;;;;15.18;9.73;;;10.60;99.90;;;;;;5028239;28;20029;-80
2023/10/25 09:13:31;;;;;;;13.23;9.60;;;10.70;99.90;;;;;;5027130;28;20112;-81
2023/10/25 09:16:07;;;;;;;11.35;8.00;;;10.80;99.90;;;;;;5026424;28;20025;-83
2023/10/25 09:18:35;;;;;;;9.90;6.80;;;10.80;99.90;;;;;;5030014;28;20105;-81
2023/10/25 09:21:05;;;;;;;10.55;7.15;;;10.80;99.90;;;;;;5029199;28;20178;-82
2023/10/25 09:23:33;;;;;;;9.85;7.22;;;10.90;99.90;;;;;;5026128;28;20424;-80
2023/10/25 09:26:01;;;;;;;9.73;7.20;;;10.90;99.90;;;;;;5030855;28;20072;-81
2023/10/25 09:28:28;;;;;;;10.10;7.78;;;10.80;99.90;;;;;;5042678;28;20025;-83
2023/10/25 09:30:58;;;;;;;25.83;17.05;;;10.70;99.90;;;;;;5028938;28;20041;-80
2023/10/25 09:33:28;;;;;;;13.23;8.80;;;10.70;99.90;;;;;;5030911;28;20488;-81
2023/10/25 09:35:54;;;;;;;11.65;8.63;;;10.70;99.90;;;;;;5032109;28;20056;-81
2023/10/25 09:38:20;;;;;;;11.00;7.88;;;10.70;99.90;;;;;;5044032;28;20029;-80
2023/10/25 09:40:54;;;;;;;10.50;7.93;;;10.80;99.90;;;;;;5035590;28;20068;-80
2023/10/25 09:43:20;;;;;;;11.35;7.95;;;10.90;99.90;;;;;;5038003;28;20033;-80
2023/10/25 09:45:51;;;;;;;10.00;7.40;;;11.10;99.90;;;;;;5034940;28;20112;-80
2023/10/25 09:48:19;;;;;;;10.65;7.97;;;11.20;99.90;;;;;;5030652;28;20610;-81
2023/10/25 09:51:08;;;;;;;8.95;6.82;;;11.40;99.90;;;;;;5035251;28;20064;-82
2023/10/25 09:53:43;;;;;;;8.07;5.97;;;11.50;99.90;;;;;;5037558;28;20025;-80
2023/10/25 09:56:09;;;;;;;7.70;5.45;;;11.60;99.90;;;;;;5031574;28;20039;-80
2023/10/25 09:58:36;;;;;;;8.05;5.50;;;11.70;99.90;;;;;;5035577;28;20033;-80
2023/10/25 10:01:03;;;;;;;7.35;5.30;;;11.70;99.90;;;;;;5039663;28;20044;-79
2023/10/25 10:03:55;;;;;;;6.68;5.32;;;11.60;99.90;;;;;;5033505;28;20030;-81
2023/10/25 10:06:26;;;;;;;9.07;5.15;;;11.60;99.90;;;;;;5033341;28;20034;-81
2023/10/25 10:09:14;;;;;;;6.63;5.28;;;11.60;99.90;;;;;;5035035;28;20033;-80
2023/10/25 10:11:47;;;;;;;7.68;4.68;;;11.60;99.90;;;;;;5030711;28;20049;-80
2023/10/25 10:14:37;;;;;;;7.82;5.47;;;11.60;99.90;;;;;;5032867;28;20109;-80
2023/10/25 10:17:08;;;;;;;5.47;4.78;;;11.50;99.90;;;;;;5035336;28;20038;-81
2023/10/25 10:19:38;;;;;;;6.25;5.20;;;11.40;99.90;;;;;;5039795;28;20041;-82
2023/10/25 10:22:13;;;;;;;8.75;5.40;;;11.20;99.90;;;;;;5038634;28;20020;-82
2023/10/25 10:24:41;;;;;;;3.60;3.28;;;11.20;99.90;;;;;;5035283;28;20076;-83
2023/10/25 10:27:07;;;;;;;4.07;3.67;;;11.30;99.90;;;;;;5037022;28;20582;-81
2023/10/25 10:29:33;;;;;;;4.43;3.75;;;11.40;99.90;;;;;;5035271;28;20032;-82
2023/10/25 10:32:01;;;;;;;4.00;3.70;;;11.50;99.90;;;;;;5035173;28;20585;-81
2023/10/25 10:34:43;;;;;;;4.95;4.10;;;11.60;99.90;;;;;;5050057;28;20389;-82
2023/10/25 10:37:14;;;;;;;4.82;3.80;;;11.70;99.90;;;;;;5036227;28;20035;-81
2023/10/25 10:39:56;;;;;;;5.03;4.30;;;11.80;99.90;;;;;;5037374;28;20033;-83
2023/10/25 10:42:31;;;;;;;6.75;3.88;;;11.90;99.90;;;;;;5056941;28;20052;-81
2023/10/25 10:44:59;;;;;;;4.00;3.60;;;11.80;99.90;;;;;;5039209;28;20029;-81
2023/10/25 10:47:49;;;;;;;4.85;3.85;;;11.80;99.90;;;;;;5032963;28;20441;-82
2023/10/25 10:50:20;;;;;;;4.85;3.75;;;11.80;99.90;;;;;;5038266;28;20406;-82
2023/10/25 10:52:47;;;;;;;3.42;3.13;;;11.80;99.90;;;;;;5032702;28;20036;-81
2023/10/25 10:55:15;;;;;;;5.22;4.32;;;11.80;99.90;;;;;;5038554;28;20105;-83
2023/10/25 10:57:41;;;;;;;5.78;4.05;;;11.90;99.90;;;;;;5035365;28;20025;-80
2023/10/25 11:00:09;;;;;;;5.03;3.88;;;12.10;99.90;;;;;;5038988;28;20543;-81
2023/10/25 11:02:39;;;;;;;4.80;3.28;;;11.90;99.90;;;;;;5035179;28;20025;-78
2023/10/25 11:05:06;;;;;;;3.70;3.30;;;11.90;99.90;;;;;;5026526;28;20056;-81
2023/10/25 11:07:33;;;;;;;4.97;4.00;;;11.80;99.90;;;;;;5028665;28;20029;-81
2023/10/25 11:09:59;;;;;;;4.63;3.83;;;11.80;99.90;;;;;;5032542;28;20029;-82
2023/10/25 11:12:44;;;;;;;4.07;3.67;;;11.80;99.90;;;;;;5031769;28;20777;-80
2023/10/25 11:15:11;;;;;;;4.40;3.60;;;11.80;99.90;;;;;;5035354;28;20480;-80
2023/10/25 11:17:38;;;;;;;4.65;4.13;;;11.80;99.90;;;;;;5035336;28;20044;-79
2023/10/25 11:20:04;;;;;;;5.55;4.05;;;11.80;99.90;;;;;;5053883;28;20005;-79
2023/10/25 11:22:31;;;;;;;6.07;4.63;;;12.00;99.90;;;;;;5033401;28;20730;-80
2023/10/25 11:24:58;;;;;;;4.40;3.90;;;12.10;99.90;;;;;;5036527;28;20376;-79
2023/10/25 11:27:32;;;;;;;4.05;3.67;;;12.20;99.90;;;;;;5039264;28;20085;-80
2023/10/25 11:30:00;;;;;;;5.57;4.70;;;12.20;99.90;;;;;;5033160;28;20065;-81
2023/10/25 11:32:28;;;;;;;5.10;4.60;;;12.00;99.90;;;;;;5033953;28;20049;-80
2023/10/25 11:34:56;;;;;;;5.38;4.20;;;11.90;99.90;;;;;;5034491;28;20053;-78
2023/10/25 11:37:42;;;;;;;4.88;4.32;;;11.70;99.90;;;;;;5035084;28;20137;-80
2023/10/25 11:40:09;;;;;;;6.03;5.18;;;11.60;99.90;;;;;;5049251;28;20060;-80
2023/10/25 11:42:36;;;;;;;7.70;5.80;;;11.60;99.90;;;;;;5029628;28;20057;-80
2023/10/25 11:45:03;;;;;;;9.80;6.07;;;11.60;99.90;;;;;;5032418;28;20468;-78
2023/10/25 11:47:31;;;;;;;6.85;5.40;;;11.60;99.90;;;;;;5029447;28;20120;-81
2023/10/25 11:49:59;;;;;;;5.70;4.55;;;11.70;99.90;;;;;;5028231;28;20352;-80
2023/10/25 11:52:27;;;;;;;6.45;4.68;;;11.80;99.90;;;;;;5032090;28;20318;-78
2023/10/25 11:54:57;;;;;;;7.05;4.90;;;11.90;99.90;;;;;;5033609;28;20033;-79
2023/10/25 11:57:28;;;;;;;5.20;4.70;;;12.00;99.90;;;;;;5038149;28;20089;-79
2023/10/25 11:59:54;;;;;;;7.35;4.75;;;12.00;99.90;;;;;;5035751;28;20089;-79
2023/10/25 12:02:22;;;;;;;5.30;4.63;;;12.00;99.90;;;;;;5031905;28;20049;-80
2023/10/25 12:04:49;;;;;;;8.00;6.07;;;12.00;99.90;;;;;;5022954;28;20037;-78
2023/10/25 12:07:25;;;;;;;7.75;4.95;;;11.90;99.90;;;;;;5037576;28;20076;-80
2023/10/25 12:09:53;;;;;;;6.68;5.00;;;11.90;99.90;;;;;;5038009;28;20037;-79
2023/10/25 12:12:20;;;;;;;5.65;4.25;;;11.80;99.90;;;;;;5032346;28;20030;-79
2023/10/25 12:14:46;;;;;;;7.45;4.38;;;11.80;99.90;;;;;;5042249;28;20056;-78
2023/10/25 12:17:12;;;;;;;4.82;4.18;;;11.80;99.90;;;;;;5034911;28;20429;-79
2023/10/25 12:19:41;;;;;;;5.97;4.38;;;11.80;99.90;;;;;;5038230;28;20458;-78
2023/10/25 12:22:18;;;;;;;5.57;4.38;;;11.90;99.90;;;;;;5032576;28;20017;-79
2023/10/25 12:24:46;;;;;;;5.43;4.53;;;12.10;99.90;;;;;;5034811;28;20048;-79
2023/10/25 12:27:12;;;;;;;6.00;4.55;;;12.10;99.90;;;;;;5034761;28;20065;-79
2023/10/25 12:29:38;;;;;;;4.60;4.20;;;12.20;99.90;;;;;;5031143;28;20057;-80
2023/10/25 12:32:05;;;;;;;5.45;4.57;;;12.20;99.90;;;;;;5031909;28;20044;-77
2023/10/25 12:34:33;;;;;;;4.78;4.32;;;12.10;99.90;;;;;;5041024;28;20426;-79
2023/10/25 12:36:59;;;;;;;5.22;4.53;;;12.10;99.90;;;;;;5033064;28;20037;-80
2023/10/25 12:39:26;;;;;;;6.40;4.97;;;12.10;99.90;;;;;;5036387;28;20021;-79
2023/10/25 12:41:52;;;;;;;5.50;4.88;;;12.10;99.90;;;;;;5029827;28;20617;-79
2023/10/25 12:44:18;;;;;;;6.40;4.60;;;12.10;99.90;;;;;;5036372;28;20018;-80
2023/10/25 12:46:44;;;;;;;5.15;4.65;;;12.20;99.90;;;;;;5031898;28;20034;-80